Hafford, Canada
Current Conditions -  °F | °C
As of 11:00 AM on Monday 20 Oct 2014 (Local Time) from CYQW Reporting Station
Clear Clear  
Wind Chill: 59°   Ceiling: Unl
Heat Index: 59°   Visibility: 9mi
Dew Point: 39°   Wind: 12mph
Humidity: 48%   Direction: 170°S
Pressure: 29.67"   Gusts: NA
Location:  52.72°N, 107.35°W
Report Text: CYQW 201700Z AUTO 17010KT 9SM CLR 15/04 A2967 RMK TS/LTNG TEMPO UNAVBL SLP058 DENSITY ALT 2400FT
Loading
Personal Weather Stations






























Interactive Weather Map
Tropical Storm Tracking
New forecast layout! Learn more

10-Day Weather Forecast

Advertisements
Track Severe Weather on mobile